sensor_id;sensor_type;location;lat;lon;timestamp;pressure;altitude;pressure_sealevel;temperature;humidity
76164;BME280;64897;50.816;4.422;2023-03-04T00:00:24;101768.84;;;16.92;38.38
76164;BME280;64897;50.816;4.422;2023-03-04T00:02:50;101768.22;;;16.88;38.53
76164;BME280;64897;50.816;4.422;2023-03-04T00:05:17;101758.53;;;16.89;38.51
76164;BME280;64897;50.816;4.422;2023-03-04T00:07:44;101765.50;;;16.90;38.43
76164;BME280;64897;50.816;4.422;2023-03-04T00:10:11;101767.16;;;16.91;38.34
76164;BME280;64897;50.816;4.422;2023-03-04T00:12:38;101763.81;;;16.89;38.27
76164;BME280;64897;50.816;4.422;2023-03-04T00:15:05;101767.38;;;16.88;38.36
76164;BME280;64897;50.816;4.422;2023-03-04T00:17:32;101771.84;;;16.87;38.42
76164;BME280;64897;50.816;4.422;2023-03-04T00:19:58;101770.16;;;16.86;38.55
76164;BME280;64897;50.816;4.422;2023-03-04T00:22:25;101777.94;;;16.88;38.23
76164;BME280;64897;50.816;4.422;2023-03-04T00:24:52;101764.66;;;16.89;38.08
76164;BME280;64897;50.816;4.422;2023-03-04T00:27:18;101768.38;;;16.87;38.24
76164;BME280;64897;50.816;4.422;2023-03-04T00:29:45;101765.72;;;16.87;38.27
76164;BME280;64897;50.816;4.422;2023-03-04T00:32:12;101760.56;;;16.85;37.99
76164;BME280;64897;50.816;4.422;2023-03-04T00:34:39;101765.97;;;16.84;38.18
76164;BME280;64897;50.816;4.422;2023-03-04T00:37:06;101762.34;;;16.85;38.15
76164;BME280;64897;50.816;4.422;2023-03-04T00:39:32;101760.69;;;16.84;38.14
76164;BME280;64897;50.816;4.422;2023-03-04T00:41:59;101764.03;;;16.86;38.26
76164;BME280;64897;50.816;4.422;2023-03-04T00:44:26;101762.09;;;16.88;38.12
76164;BME280;64897;50.816;4.422;2023-03-04T00:46:52;101762.09;;;16.88;38.05
76164;BME280;64897;50.816;4.422;2023-03-04T00:49:19;101765.72;;;16.87;38.42
76164;BME280;64897;50.816;4.422;2023-03-04T00:51:46;101767.63;;;16.85;38.15
76164;BME280;64897;50.816;4.422;2023-03-04T00:54:13;101762.34;;;16.85;38.26
76164;BME280;64897;50.816;4.422;2023-03-04T00:56:39;101766.81;;;16.84;37.91
76164;BME280;64897;50.816;4.422;2023-03-04T00:59:06;101761.53;;;16.84;37.94
76164;BME280;64897;50.816;4.422;2023-03-04T01:01:33;101765.97;;;16.84;38.05
76164;BME280;64897;50.816;4.422;2023-03-04T01:04:00;101765.72;;;16.87;37.96
76164;BME280;64897;50.816;4.422;2023-03-04T01:06:26;101769.31;;;16.86;38.14
76164;BME280;64897;50.816;4.422;2023-03-04T01:08:53;101766.91;;;16.83;38.14
76164;BME280;64897;50.816;4.422;2023-03-04T01:11:20;101767.84;;;16.82;38.23
76164;BME280;64897;50.816;4.422;2023-03-04T01:13:47;101769.56;;;16.83;37.90
76164;BME280;64897;50.816;4.422;2023-03-04T01:16:14;101766.06;;;16.82;38.27
76164;BME280;64897;50.816;4.422;2023-03-04T01:18:40;101769.56;;;16.83;38.34
76164;BME280;64897;50.816;4.422;2023-03-04T01:21:07;101774.00;;;16.82;37.95
76164;BME280;64897;50.816;4.422;2023-03-04T01:23:34;101768.84;;;16.81;38.26
76164;BME280;64897;50.816;4.422;2023-03-04T01:26:01;101769.56;;;16.83;38.32
76164;BME280;64897;50.816;4.422;2023-03-04T01:28:27;101760.91;;;16.81;38.17
76164;BME280;64897;50.816;4.422;2023-03-04T01:30:54;101753.84;;;16.81;38.23
76164;BME280;64897;50.816;4.422;2023-03-04T01:33:21;101755.63;;;16.81;38.26
76164;BME280;64897;50.816;4.422;2023-03-04T01:35:48;101752.75;;;16.84;38.10
76164;BME280;64897;50.816;4.422;2023-03-04T01:38:14;101743.84;;;16.85;38.16
76164;BME280;64897;50.816;4.422;2023-03-04T01:40:41;101758.16;;;16.82;38.12
76164;BME280;64897;50.816;4.422;2023-03-04T01:43:44;101744.22;;;16.80;37.81
76164;BME280;64897;50.816;4.422;2023-03-04T01:46:04;101741.47;;;16.82;37.84
76164;BME280;64897;50.816;4.422;2023-03-04T01:48:34;101732.81;;;16.80;37.93
76164;BME280;64897;50.816;4.422;2023-03-04T01:51:09;101736.19;;;16.82;37.87
76164;BME280;64897;50.816;4.422;2023-03-04T01:53:37;101727.53;;;16.80;37.85
76164;BME280;64897;50.816;4.422;2023-03-04T01:56:24;101724.91;;;16.80;37.92
76164;BME280;64897;50.816;4.422;2023-03-04T01:59:17;101720.47;;;16.80;38.07
76164;BME280;64897;50.816;4.422;2023-03-04T02:01:49;101717.97;;;16.79;37.93
76164;BME280;64897;50.816;4.422;2023-03-04T02:04:18;101710.03;;;16.79;37.85
76164;BME280;64897;50.816;4.422;2023-03-04T02:06:47;101702.13;;;16.79;38.06
76164;BME280;64897;50.816;4.422;2023-03-04T02:09:15;101707.41;;;16.79;38.16
76164;BME280;64897;50.816;4.422;2023-03-04T02:11:44;101706.44;;;16.80;37.94
76164;BME280;64897;50.816;4.422;2023-03-04T02:14:12;101700.19;;;16.81;38.23
76164;BME280;64897;50.816;4.422;2023-03-04T02:16:40;101701.84;;;16.82;37.80
76164;BME280;64897;50.816;4.422;2023-03-04T02:19:58;101700.31;;;16.79;38.09
76164;BME280;64897;50.816;4.422;2023-03-04T02:21:58;101695.88;;;16.80;37.85
76164;BME280;64897;50.816;4.422;2023-03-04T02:24:35;101690.59;;;16.80;37.76
76164;BME280;64897;50.816;4.422;2023-03-04T02:27:04;101686.16;;;16.80;37.79
76164;BME280;64897;50.816;4.422;2023-03-04T02:29:31;101682.81;;;16.78;37.72
76164;BME280;64897;50.816;4.422;2023-03-04T02:31:58;101681.97;;;16.78;38.03
76164;BME280;64897;50.816;4.422;2023-03-04T02:34:30;101682.19;;;16.75;37.80
76164;BME280;64897;50.816;4.422;2023-03-04T02:36:58;101686.28;;;16.79;38.18
76164;BME280;64897;50.816;4.422;2023-03-04T02:39:33;101673.09;;;16.79;38.19
76164;BME280;64897;50.816;4.422;2023-03-04T02:42:01;101673.31;;;16.76;37.90
76164;BME280;64897;50.816;4.422;2023-03-04T02:44:34;101660.22;;;16.74;37.99
76164;BME280;64897;50.816;4.422;2023-03-04T02:47:02;101668.03;;;16.76;37.96
76164;BME280;64897;50.816;4.422;2023-03-04T02:49:30;101671.63;;;16.75;37.68
76164;BME280;64897;50.816;4.422;2023-03-04T02:52:01;101662.75;;;16.76;38.07
76164;BME280;64897;50.816;4.422;2023-03-04T02:54:29;101657.34;;;16.77;37.97
76164;BME280;64897;50.816;4.422;2023-03-04T02:56:58;101661.91;;;16.75;38.09
76164;BME280;64897;50.816;4.422;2023-03-04T02:59:25;101658.53;;;16.73;37.88
76164;BME280;64897;50.816;4.422;2023-03-04T03:01:52;101657.25;;;16.79;38.01
76164;BME280;64897;50.816;4.422;2023-03-04T03:04:19;101660.13;;;16.76;37.73
76164;BME280;64897;50.816;4.422;2023-03-04T03:06:47;101661.78;;;16.77;38.00
76164;BME280;64897;50.816;4.422;2023-03-04T03:09:13;101656.63;;;16.75;37.98
76164;BME280;64897;50.816;4.422;2023-03-04T03:11:40;101654.09;;;16.74;37.88
76164;BME280;64897;50.816;4.422;2023-03-04T03:14:07;101660.94;;;16.76;37.61
76164;BME280;64897;50.816;4.422;2023-03-04T03:16:34;101654.09;;;16.74;37.66
76164;BME280;64897;50.816;4.422;2023-03-04T03:19:01;101662.03;;;16.74;38.15
76164;BME280;64897;50.816;4.422;2023-03-04T03:21:27;101661.91;;;16.75;37.94
76164;BME280;64897;50.816;4.422;2023-03-04T03:23:54;101664.66;;;16.74;38.08
76164;BME280;64897;50.816;4.422;2023-03-04T03:26:22;101661.06;;;16.75;37.66
76164;BME280;64897;50.816;4.422;2023-03-04T03:28:48;101661.06;;;16.75;37.70
76164;BME280;64897;50.816;4.422;2023-03-04T03:31:15;101662.03;;;16.74;38.00
76164;BME280;64897;50.816;4.422;2023-03-04T03:33:42;101654.09;;;16.74;37.98
76164;BME280;64897;50.816;4.422;2023-03-04T03:36:09;101666.47;;;16.73;37.99
76164;BME280;64897;50.816;4.422;2023-03-04T03:38:35;101659.53;;;16.72;37.81
76164;BME280;64897;50.816;4.422;2023-03-04T03:41:02;101661.91;;;16.75;38.23
76164;BME280;64897;50.816;4.422;2023-03-04T03:43:29;101661.06;;;16.75;37.86
76164;BME280;64897;50.816;4.422;2023-03-04T03:45:56;101667.31;;;16.74;38.24
76164;BME280;64897;50.816;4.422;2023-03-04T03:48:22;101663.00;;;16.73;38.03
76164;BME280;64897;50.816;4.422;2023-03-04T03:50:49;101669.94;;;16.74;38.00
76164;BME280;64897;50.816;4.422;2023-03-04T03:53:16;101668.28;;;16.73;38.01
76164;BME280;64897;50.816;4.422;2023-03-04T03:55:42;101658.53;;;16.73;38.07
76164;BME280;64897;50.816;4.422;2023-03-04T03:58:09;101663.97;;;16.72;37.80
76164;BME280;64897;50.816;4.422;2023-03-04T04:00:36;101669.25;;;16.72;37.98
76164;BME280;64897;50.816;4.422;2023-03-04T04:03:03;101671.03;;;16.71;37.83
76164;BME280;64897;50.816;4.422;2023-03-04T04:05:30;101668.38;;;16.71;37.74
76164;BME280;64897;50.816;4.422;2023-03-04T04:07:57;101676.44;;;16.70;38.10
76164;BME280;64897;50.816;4.422;2023-03-04T04:10:24;101673.56;;;16.73;37.93
76164;BME280;64897;50.816;4.422;2023-03-04T04:12:50;101674.53;;;16.72;37.72
76164;BME280;64897;50.816;4.422;2023-03-04T04:15:17;101665.75;;;16.71;37.90
76164;BME280;64897;50.816;4.422;2023-03-04T04:17:44;101663.25;;;16.70;37.93
76164;BME280;64897;50.816;4.422;2023-03-04T04:20:11;101666.59;;;16.72;37.42
76164;BME280;64897;50.816;4.422;2023-03-04T04:22:38;101668.53;;;16.70;37.78
76164;BME280;64897;50.816;4.422;2023-03-04T04:25:05;101662.16;;;16.72;37.69
76164;BME280;64897;50.816;4.422;2023-03-04T04:27:34;101664.91;;;16.71;38.15
76164;BME280;64897;50.816;4.422;2023-03-04T04:30:01;101662.41;;;16.69;38.12
76164;BME280;64897;50.816;4.422;2023-03-04T04:32:27;101662.25;;;16.71;37.65
76164;BME280;64897;50.816;4.422;2023-03-04T04:34:54;101664.44;;;16.77;37.83
76164;BME280;64897;50.816;4.422;2023-03-04T04:37:21;101659.63;;;16.71;37.60
76164;BME280;64897;50.816;4.422;2023-03-04T04:39:47;101662.25;;;16.71;37.84
76164;BME280;64897;50.816;4.422;2023-03-04T04:42:14;101668.53;;;16.70;38.08
76164;BME280;64897;50.816;4.422;2023-03-04T04:44:41;101664.91;;;16.71;37.98
76164;BME280;64897;50.816;4.422;2023-03-04T04:47:09;101665.88;;;16.70;37.98
76164;BME280;64897;50.816;4.422;2023-03-04T04:49:35;101668.53;;;16.70;38.03
76164;BME280;64897;50.816;4.422;2023-03-04T04:52:02;101669.47;;;16.69;37.53
76164;BME280;64897;50.816;4.422;2023-03-04T04:54:29;101668.53;;;16.70;37.86
76164;BME280;64897;50.816;4.422;2023-03-04T04:56:56;101673.81;;;16.70;37.83
76164;BME280;64897;50.816;4.422;2023-03-04T04:59:23;101675.47;;;16.71;37.78
76164;BME280;64897;50.816;4.422;2023-03-04T05:01:49;101672.72;;;16.72;37.49
76164;BME280;64897;50.816;4.422;2023-03-04T05:04:16;101673.81;;;16.70;37.50
76164;BME280;64897;50.816;4.422;2023-03-04T05:06:43;101673.91;;;16.68;38.02
76164;BME280;64897;50.816;4.422;2023-03-04T05:09:11;101670.56;;;16.66;37.76
76164;BME280;64897;50.816;4.422;2023-03-04T05:11:37;101679.31;;;16.67;37.84
76164;BME280;64897;50.816;4.422;2023-03-04T05:14:04;101670.66;;;16.65;38.11
76164;BME280;64897;50.816;4.422;2023-03-04T05:16:31;101669.84;;;16.64;37.48
76164;BME280;64897;50.816;4.422;2023-03-04T05:18:58;101668.78;;;16.67;37.77
76164;BME280;64897;50.816;4.422;2023-03-04T05:21:25;101677.41;;;16.69;37.55
76164;BME280;64897;50.816;4.422;2023-03-04T05:23:52;101674.75;;;16.69;37.67
76164;BME280;64897;50.816;4.422;2023-03-04T05:26:18;101672.25;;;16.67;37.84
76164;BME280;64897;50.816;4.422;2023-03-04T05:28:45;101675.94;;;16.65;37.65
76164;BME280;64897;50.816;4.422;2023-03-04T05:31:12;101677.25;;;16.70;37.89
76164;BME280;64897;50.816;4.422;2023-03-04T05:33:39;101677.16;;;16.72;37.64
76164;BME280;64897;50.816;4.422;2023-03-04T05:36:07;101668.63;;;16.68;38.03
76164;BME280;64897;50.816;4.422;2023-03-04T05:38:34;101669.25;;;16.72;37.61
76164;BME280;64897;50.816;4.422;2023-03-04T05:41:04;101667.78;;;16.68;37.77
76164;BME280;64897;50.816;4.422;2023-03-04T05:43:31;101664.34;;;16.67;37.77
76164;BME280;64897;50.816;4.422;2023-03-04T05:46:02;101666.59;;;16.72;37.71
76164;BME280;64897;50.816;4.422;2023-03-04T05:48:29;101668.78;;;16.67;37.79
76164;BME280;64897;50.816;4.422;2023-03-04T05:50:57;101662.50;;;16.68;37.88
76164;BME280;64897;50.816;4.422;2023-03-04T05:53:25;101668.78;;;16.67;37.87
76164;BME280;64897;50.816;4.422;2023-03-04T05:55:52;101665.88;;;16.70;37.84
76164;BME280;64897;50.816;4.422;2023-03-04T05:58:19;101668.78;;;16.67;37.89
76164;BME280;64897;50.816;4.422;2023-03-04T06:00:46;101670.19;;;16.71;37.60
76164;BME280;64897;50.816;4.422;2023-03-04T06:03:18;101670.31;;;16.69;37.95
76164;BME280;64897;50.816;4.422;2023-03-04T06:05:46;101674.03;;;16.67;37.66
76164;BME280;64897;50.816;4.422;2023-03-04T06:08:13;101672.13;;;16.69;37.39
76164;BME280;64897;50.816;4.422;2023-03-04T06:10:41;101674.16;;;16.65;38.06
76164;BME280;64897;50.816;4.422;2023-03-04T06:13:08;101677.63;;;16.66;37.95
76164;BME280;64897;50.816;4.422;2023-03-04T06:15:36;101681.97;;;16.67;37.61
76164;BME280;64897;50.816;4.422;2023-03-04T06:18:03;101683.88;;;16.65;37.87
76164;BME280;64897;50.816;4.422;2023-03-04T06:20:29;101679.31;;;16.67;37.87
76164;BME280;64897;50.816;4.422;2023-03-04T06:22:56;101686.25;;;16.68;37.94
76164;BME280;64897;50.816;4.422;2023-03-04T06:25:24;101686.50;;;16.65;37.54
76164;BME280;64897;50.816;4.422;2023-03-04T06:27:50;101688.19;;;16.66;37.77
76164;BME280;64897;50.816;4.422;2023-03-04T06:30:18;101684.59;;;16.67;38.00
76164;BME280;64897;50.816;4.422;2023-03-04T06:32:45;101692.63;;;16.65;38.05
76164;BME280;64897;50.816;4.422;2023-03-04T06:35:14;101710.38;;;16.63;37.87
76164;BME280;64897;50.816;4.422;2023-03-04T06:37:42;101705.72;;;16.67;37.91
76164;BME280;64897;50.816;4.422;2023-03-04T06:40:10;101704.03;;;16.66;37.70
76164;BME280;64897;50.816;4.422;2023-03-04T06:42:37;101709.31;;;16.66;37.72
76164;BME280;64897;50.816;4.422;2023-03-04T06:45:06;101711.25;;;16.64;37.97
76164;BME280;64897;50.816;4.422;2023-03-04T06:47:33;101707.50;;;16.66;37.70
76164;BME280;64897;50.816;4.422;2023-03-04T06:49:59;101714.59;;;16.66;37.85
76164;BME280;64897;50.816;4.422;2023-03-04T06:52:26;101710.25;;;16.65;38.18
76164;BME280;64897;50.816;4.422;2023-03-04T06:54:53;101718.19;;;16.65;37.90
76164;BME280;64897;50.816;4.422;2023-03-04T06:57:19;101711.47;;;16.61;37.93
76164;BME280;64897;50.816;4.422;2023-03-04T06:59:46;101713.13;;;16.62;37.95
76164;BME280;64897;50.816;4.422;2023-03-04T07:02:13;101719.25;;;16.62;37.87
76164;BME280;64897;50.816;4.422;2023-03-04T07:04:40;101714.81;;;16.63;38.10
76164;BME280;64897;50.816;4.422;2023-03-04T07:07:06;101712.09;;;16.64;37.60
76164;BME280;64897;50.816;4.422;2023-03-04T07:09:33;101709.53;;;16.63;37.78
76164;BME280;64897;50.816;4.422;2023-03-04T07:12:00;101716.53;;;16.64;37.75
76164;BME280;64897;50.816;4.422;2023-03-04T07:14:27;101721.78;;;16.64;37.71
76164;BME280;64897;50.816;4.422;2023-03-04T07:16:54;101720.81;;;16.65;37.78
76164;BME280;64897;50.816;4.422;2023-03-04T07:19:21;101715.53;;;16.65;38.01
76164;BME280;64897;50.816;4.422;2023-03-04T07:21:48;101726.84;;;16.67;37.97
76164;BME280;64897;50.816;4.422;2023-03-04T07:24:14;101725.38;;;16.63;38.06
76164;BME280;64897;50.816;4.422;2023-03-04T07:26:41;101732.34;;;16.64;37.97
76164;BME280;64897;50.816;4.422;2023-03-04T07:29:08;101730.44;;;16.66;38.09
76164;BME280;64897;50.816;4.422;2023-03-04T07:31:35;101730.66;;;16.63;37.81
76164;BME280;64897;50.816;4.422;2023-03-04T07:34:04;101740.28;;;16.64;37.66
76164;BME280;64897;50.816;4.422;2023-03-04T07:36:34;101738.56;;;16.63;38.10
76164;BME280;64897;50.816;4.422;2023-03-04T07:39:01;101738.25;;;16.67;37.88
76164;BME280;64897;50.816;4.422;2023-03-04T07:41:29;101742.06;;;16.63;37.89
76164;BME280;64897;50.816;4.422;2023-03-04T07:43:57;101748.19;;;16.64;38.03
76164;BME280;64897;50.816;4.422;2023-03-04T07:46:24;101745.66;;;16.62;37.67
76164;BME280;64897;50.816;4.422;2023-03-04T07:48:51;101748.19;;;16.64;38.26
76164;BME280;64897;50.816;4.422;2023-03-04T07:51:20;101757.91;;;16.63;38.14
76164;BME280;64897;50.816;4.422;2023-03-04T07:53:49;101752.72;;;16.62;37.87
76164;BME280;64897;50.816;4.422;2023-03-04T07:56:20;101754.41;;;16.63;38.12
76164;BME280;64897;50.816;4.422;2023-03-04T07:58:47;101750.09;;;16.62;37.91
76164;BME280;64897;50.816;4.422;2023-03-04T08:01:34;101758.75;;;16.64;38.13
76164;BME280;64897;50.816;4.422;2023-03-04T08:04:03;101757.91;;;16.63;38.21
76164;BME280;64897;50.816;4.422;2023-03-04T08:06:30;101759.81;;;16.61;38.13
76164;BME280;64897;50.816;4.422;2023-03-04T08:09:00;101763.03;;;16.65;38.18
76164;BME280;64897;50.816;4.422;2023-03-04T08:11:28;101762.34;;;16.63;37.83
76164;BME280;64897;50.816;4.422;2023-03-04T08:13:55;101769.31;;;16.64;37.96
76164;BME280;64897;50.816;4.422;2023-03-04T08:16:23;101773.50;;;16.66;38.12
76164;BME280;64897;50.816;4.422;2023-03-04T08:18:52;101770.16;;;16.64;37.89
76164;BME280;64897;50.816;4.422;2023-03-04T08:21:21;101776.25;;;16.65;37.85
76164;BME280;64897;50.816;4.422;2023-03-04T08:23:48;101777.09;;;16.65;38.03
76164;BME280;64897;50.816;4.422;2023-03-04T08:28:46;101779.13;;;16.62;38.12
76164;BME280;64897;50.816;4.422;2023-03-04T08:31:14;101783.69;;;16.60;38.18
76164;BME280;64897;50.816;4.422;2023-03-04T08:33:42;101783.59;;;16.61;37.98
76164;BME280;64897;50.816;4.422;2023-03-04T08:36:09;101785.38;;;16.61;38.15
76164;BME280;64897;50.816;4.422;2023-03-04T08:38:36;101783.44;;;16.63;37.56
76164;BME280;64897;50.816;4.422;2023-03-04T08:41:03;101781.75;;;16.62;38.02
76164;BME280;64897;50.816;4.422;2023-03-04T08:43:30;101786.09;;;16.63;37.88
76164;BME280;64897;50.816;4.422;2023-03-04T08:45:57;101783.44;;;16.63;38.21
76164;BME280;64897;50.816;4.422;2023-03-04T08:48:25;101781.66;;;16.63;38.02
76164;BME280;64897;50.816;4.422;2023-03-04T08:50:52;101778.16;;;16.63;38.16
76164;BME280;64897;50.816;4.422;2023-03-04T08:53:19;101778.88;;;16.65;37.90
76164;BME280;64897;50.816;4.422;2023-03-04T08:55:46;101777.31;;;16.62;38.04
76164;BME280;64897;50.816;4.422;2023-03-04T08:58:14;101780.81;;;16.63;37.82
76164;BME280;64897;50.816;4.422;2023-03-04T09:00:44;101776.47;;;16.62;38.32
76164;BME280;64897;50.816;4.422;2023-03-04T09:03:15;101772.78;;;16.64;37.93
76164;BME280;64897;50.816;4.422;2023-03-04T09:05:43;101776.47;;;16.62;37.94
76164;BME280;64897;50.816;4.422;2023-03-04T09:08:09;101776.47;;;16.62;38.32
76164;BME280;64897;50.816;4.422;2023-03-04T09:10:36;101780.81;;;16.63;38.11
76164;BME280;64897;50.816;4.422;2023-03-04T09:13:03;101772.88;;;16.63;38.02
76164;BME280;64897;50.816;4.422;2023-03-04T09:15:32;101776.47;;;16.62;38.27
76164;BME280;64897;50.816;4.422;2023-03-04T09:18:03;101781.75;;;16.62;38.23
76164;BME280;64897;50.816;4.422;2023-03-04T09:20:31;101778.16;;;16.63;37.96
76164;BME280;64897;50.816;4.422;2023-03-04T09:22:58;101779.13;;;16.62;38.21
76164;BME280;64897;50.816;4.422;2023-03-04T09:25:24;101776.47;;;16.62;37.96
76164;BME280;64897;50.816;4.422;2023-03-04T09:27:51;101778.16;;;16.63;37.92
76164;BME280;64897;50.816;4.422;2023-03-04T09:30:18;101775.53;;;16.63;37.88
76164;BME280;64897;50.816;4.422;2023-03-04T09:32:45;101768.47;;;16.63;37.98
76164;BME280;64897;50.816;4.422;2023-03-04T09:35:12;101772.88;;;16.63;37.86
76164;BME280;64897;50.816;4.422;2023-03-04T09:37:39;101768.47;;;16.63;38.16
76164;BME280;64897;50.816;4.422;2023-03-04T09:40:06;101769.53;;;16.61;38.39
76164;BME280;64897;50.816;4.422;2023-03-04T09:42:39;101769.31;;;16.64;37.87
76164;BME280;64897;50.816;4.422;2023-03-04T09:45:10;101769.31;;;16.64;37.87
76164;BME280;64897;50.816;4.422;2023-03-04T09:47:39;101772.88;;;16.63;37.98
76164;BME280;64897;50.816;4.422;2023-03-04T09:50:08;101768.22;;;16.66;38.28
76164;BME280;64897;50.816;4.422;2023-03-04T09:53:04;101776.38;;;16.63;38.27
76164;BME280;64897;50.816;4.422;2023-03-04T09:55:41;101771.09;;;16.63;38.12
76164;BME280;64897;50.816;4.422;2023-03-04T10:04:11;101769.31;;;16.64;38.15
76164;BME280;64897;50.816;4.422;2023-03-04T10:06:40;101764.03;;;16.64;38.19
76164;BME280;64897;50.816;4.422;2023-03-04T10:09:20;101760.66;;;16.62;38.29
76164;BME280;64897;50.816;4.422;2023-03-04T10:12:03;101762.34;;;16.63;37.91
76164;BME280;64897;50.816;4.422;2023-03-04T10:14:36;101762.22;;;16.64;38.02
76164;BME280;64897;50.816;4.422;2023-03-04T10:17:39;101764.03;;;16.64;38.43
76164;BME280;64897;50.816;4.422;2023-03-04T10:20:26;101758.75;;;16.64;38.33
76164;BME280;64897;50.816;4.422;2023-03-04T10:23:11;101762.09;;;16.66;38.26
76164;BME280;64897;50.816;4.422;2023-03-04T10:25:43;101762.22;;;16.64;38.59
76164;BME280;64897;50.816;4.422;2023-03-04T10:28:16;101760.41;;;16.65;38.25
76164;BME280;64897;50.816;4.422;2023-03-04T10:33:37;101753.22;;;16.67;38.49
76164;BME280;64897;50.816;4.422;2023-03-04T10:36:17;101771.72;;;16.67;38.18
76164;BME280;64897;50.816;4.422;2023-03-04T10:38:48;101762.00;;;16.67;38.40
76164;BME280;64897;50.816;4.422;2023-03-04T10:41:24;101770.72;;;16.68;38.37
76164;BME280;64897;50.816;4.422;2023-03-04T10:46:27;101762.72;;;16.69;38.22
76164;BME280;64897;50.816;4.422;2023-03-04T10:48:54;101761.88;;;16.69;38.63
76164;BME280;64897;50.816;4.422;2023-03-04T10:51:24;101762.72;;;16.69;38.64
76164;BME280;64897;50.816;4.422;2023-03-04T10:54:30;101769.31;;;16.75;38.48
76164;BME280;64897;50.816;4.422;2023-03-04T10:56:58;101756.97;;;16.75;38.49
76164;BME280;64897;50.816;4.422;2023-03-04T11:15:59;101749.38;;;16.71;38.65
76164;BME280;64897;50.816;4.422;2023-03-04T11:18:40;101745.19;;;16.68;38.43
76164;BME280;64897;50.816;4.422;2023-03-04T11:21:16;101746.88;;;16.69;38.81
76164;BME280;64897;50.816;4.422;2023-03-04T11:23:52;101740.88;;;16.67;38.66
76164;BME280;64897;50.816;4.422;2023-03-04T11:26:34;101737.41;;;16.67;38.60
76164;BME280;64897;50.816;4.422;2023-03-04T11:32:01;101736.56;;;16.66;38.58
76164;BME280;64897;50.816;4.422;2023-03-04T11:34:36;101736.66;;;16.65;39.01
76164;BME280;64897;50.816;4.422;2023-03-04T11:39:40;101727.78;;;16.66;38.78
76164;BME280;64897;50.816;4.422;2023-03-04T11:44:42;101725.16;;;16.66;38.95
76164;BME280;64897;50.816;4.422;2023-03-04T11:47:18;101726.84;;;16.67;38.82
76164;BME280;64897;50.816;4.422;2023-03-04T12:00:25;101704.97;;;16.65;38.75
76164;BME280;64897;50.816;4.422;2023-03-04T12:05:58;101696.09;;;16.66;38.77
76164;BME280;64897;50.816;4.422;2023-03-04T12:08:38;101687.34;;;16.65;38.56
76164;BME280;64897;50.816;4.422;2023-03-04T12:11:20;101689.88;;;16.67;38.68
76164;BME280;64897;50.816;4.422;2023-03-04T12:26:29;101685.44;;;16.67;38.64
76164;BME280;64897;50.816;4.422;2023-03-04T12:29:10;101678.59;;;16.65;38.69
76164;BME280;64897;50.816;4.422;2023-03-04T12:31:42;101680.28;;;16.66;38.80
76164;BME280;64897;50.816;4.422;2023-03-04T12:39:40;101654.00;;;16.64;39.03
76164;BME280;64897;50.816;4.422;2023-03-04T12:48:03;101651.84;;;16.69;39.02
76164;BME280;64897;50.816;4.422;2023-03-04T12:50:36;101644.03;;;16.68;39.07
76164;BME280;64897;50.816;4.422;2023-03-04T12:53:23;101647.66;;;16.67;38.91
76164;BME280;64897;50.816;4.422;2023-03-04T12:55:55;101640.44;;;16.69;38.74
76164;BME280;64897;50.816;4.422;2023-03-04T12:58:31;101638.75;;;16.68;38.59
76164;BME280;64897;50.816;4.422;2023-03-04T13:01:24;101641.28;;;16.69;39.01
76164;BME280;64897;50.816;4.422;2023-03-04T13:07:23;101634.31;;;16.68;38.98
76164;BME280;64897;50.816;4.422;2023-03-04T13:09:37;101628.09;;;16.69;38.60
76164;BME280;64897;50.816;4.422;2023-03-04T13:12:20;101631.81;;;16.67;38.77
76164;BME280;64897;50.816;4.422;2023-03-04T13:20:21;101625.78;;;16.65;38.77
76164;BME280;64897;50.816;4.422;2023-03-04T13:22:56;101621.38;;;16.65;39.02
76164;BME280;64897;50.816;4.422;2023-03-04T13:35:49;101609.97;;;16.65;38.96
76164;BME280;64897;50.816;4.422;2023-03-04T13:47:19;101588.13;;;16.63;39.08
76164;BME280;64897;50.816;4.422;2023-03-04T13:49:46;101584.53;;;16.64;38.94
76164;BME280;64897;50.816;4.422;2023-03-04T13:52:49;101580.94;;;16.65;38.92
76164;BME280;64897;50.816;4.422;2023-03-04T13:58:13;101587.06;;;16.65;39.23
76164;BME280;64897;50.816;4.422;2023-03-04T14:00:49;101586.19;;;16.65;39.12
76164;BME280;64897;50.816;4.422;2023-03-04T14:03:25;101582.63;;;16.66;39.09
76164;BME280;64897;50.816;4.422;2023-03-04T14:06:14;101576.50;;;16.65;38.77
76164;BME280;64897;50.816;4.422;2023-03-04T14:08:41;101572.06;;;16.66;38.85
76164;BME280;64897;50.816;4.422;2023-03-04T14:11:28;101579.28;;;16.64;39.09
76164;BME280;64897;50.816;4.422;2023-03-04T14:13:59;101574.84;;;16.64;39.23
76164;BME280;64897;50.816;4.422;2023-03-04T14:16:34;101568.72;;;16.64;38.95
76164;BME280;64897;50.816;4.422;2023-03-04T14:19:05;101571.22;;;16.65;38.94
76164;BME280;64897;50.816;4.422;2023-03-04T14:21:34;101570.38;;;16.65;38.94
76164;BME280;64897;50.816;4.422;2023-03-04T14:24:09;101564.13;;;16.66;38.94
76164;BME280;64897;50.816;4.422;2023-03-04T14:26:37;101562.44;;;16.65;38.85
76164;BME280;64897;50.816;4.422;2023-03-04T14:29:25;101563.19;;;16.67;38.78
76164;BME280;64897;50.816;4.422;2023-03-04T14:31:53;101555.50;;;16.64;38.97
76164;BME280;64897;50.816;4.422;2023-03-04T14:34:32;101560.66;;;16.65;38.93
76164;BME280;64897;50.816;4.422;2023-03-04T14:37:00;101557.91;;;16.67;38.90
76164;BME280;64897;50.816;4.422;2023-03-04T14:39:30;101559.81;;;16.65;39.01
76164;BME280;64897;50.816;4.422;2023-03-04T14:42:03;101555.50;;;16.64;39.34
76164;BME280;64897;50.816;4.422;2023-03-04T14:44:36;101555.50;;;16.64;39.22
76164;BME280;64897;50.816;4.422;2023-03-04T14:47:32;101549.25;;;16.65;39.03
76164;BME280;64897;50.816;4.422;2023-03-04T14:50:05;101546.63;;;16.65;39.26